createdAt,value
2022-08-24T00:01:56.548Z,19.80
2022-08-24T00:04:24.975Z,19.70
2022-08-24T00:06:53.020Z,19.60
2022-08-24T00:09:21.135Z,19.60
2022-08-24T00:11:49.315Z,19.60
2022-08-24T00:14:17.807Z,19.60
2022-08-24T00:16:47.711Z,19.60
2022-08-24T00:19:16.238Z,19.60
2022-08-24T00:21:44.312Z,19.50
2022-08-24T00:24:12.487Z,19.50
2022-08-24T00:26:40.514Z,19.50
2022-08-24T00:29:08.592Z,19.50
2022-08-24T00:31:36.866Z,19.50
2022-08-24T00:34:06.791Z,19.50
2022-08-24T00:36:35.349Z,19.50
2022-08-24T00:39:04.764Z,19.50
2022-08-24T00:41:33.130Z,19.40
2022-08-24T00:44:03.114Z,19.40
2022-08-24T00:46:38.900Z,19.30
2022-08-24T00:49:14.678Z,19.30
2022-08-24T00:51:50.401Z,19.30
2022-08-24T00:54:19.919Z,19.20
2022-08-24T00:56:53.293Z,19.20
2022-08-24T00:59:25.786Z,19.20
2022-08-24T01:01:57.553Z,19.20
2022-08-24T01:04:36.359Z,19.10
2022-08-24T01:07:04.677Z,19.10
2022-08-24T01:09:32.799Z,19.10
2022-08-24T01:12:00.968Z,19.10
2022-08-24T01:14:29.762Z,19.00
2022-08-24T01:17:15.590Z,19.10
2022-08-24T01:19:50.199Z,19.10
2022-08-24T01:22:33.951Z,19.10
2022-08-24T01:25:03.477Z,19.00
2022-08-24T01:27:31.966Z,19.00
2022-08-24T01:30:02.844Z,19.00
2022-08-24T01:32:31.231Z,18.90
2022-08-24T01:34:59.781Z,18.90
2022-08-24T01:37:27.903Z,18.80
2022-08-24T01:39:59.148Z,18.80
2022-08-24T01:42:29.950Z,18.80
2022-08-24T01:44:58.096Z,18.70
2022-08-24T01:47:26.138Z,18.70
2022-08-24T01:49:54.234Z,18.70
2022-08-24T01:52:25.209Z,18.70
2022-08-24T01:54:53.490Z,18.70
2022-08-24T01:57:25.092Z,18.70
2022-08-24T01:59:54.689Z,18.70
2022-08-24T02:02:28.353Z,18.60
2022-08-24T02:04:56.588Z,18.60
2022-08-24T02:07:24.967Z,18.60
2022-08-24T02:13:42.516Z,18.60
2022-08-24T02:16:12.031Z,18.60
2022-08-24T02:18:41.174Z,18.60
2022-08-24T02:21:09.749Z,18.60
2022-08-24T02:23:39.223Z,18.60
2022-08-24T02:26:09.510Z,18.60
2022-08-24T02:28:39.052Z,18.60
2022-08-24T02:31:08.761Z,18.60
2022-08-24T02:33:39.047Z,18.60
2022-08-24T02:36:21.851Z,18.60
2022-08-24T02:38:54.931Z,18.60
2022-08-24T02:41:25.957Z,18.60
2022-08-24T02:43:54.568Z,18.60
2022-08-24T02:46:24.225Z,18.60
2022-08-24T02:48:59.895Z,18.50
2022-08-24T02:51:44.638Z,18.40
2022-08-24T02:54:17.376Z,18.50
2022-08-24T02:56:45.458Z,18.40
2022-08-24T02:59:14.042Z,18.50
2022-08-24T03:01:42.249Z,18.50
2022-08-24T03:04:12.066Z,18.40
2022-08-24T03:06:40.299Z,18.40
2022-08-24T03:09:09.126Z,18.40
2022-08-24T03:11:37.416Z,18.40
2022-08-24T03:14:05.916Z,18.40
2022-08-24T03:16:34.078Z,18.40
2022-08-24T03:19:02.567Z,18.40
2022-08-24T03:21:33.236Z,18.40
2022-08-24T03:24:01.270Z,18.40
2022-08-24T03:26:29.546Z,18.40
2022-08-24T03:28:57.626Z,18.30
2022-08-24T03:31:27.517Z,18.30
2022-08-24T03:33:55.580Z,18.30
2022-08-24T03:36:23.626Z,18.30
2022-08-24T03:38:53.079Z,18.30
2022-08-24T03:41:21.165Z,18.30
2022-08-24T03:43:49.644Z,18.30
2022-08-24T03:46:20.783Z,18.30
2022-08-24T03:48:49.924Z,18.30
2022-08-24T03:51:19.896Z,18.30
2022-08-24T03:53:48.106Z,18.30
2022-08-24T03:56:18.547Z,18.20
2022-08-24T03:58:47.881Z,18.10
2022-08-24T04:01:17.128Z,18.10
2022-08-24T04:03:46.900Z,18.00
2022-08-24T04:06:17.039Z,17.90
2022-08-24T04:08:45.572Z,17.90
2022-08-24T04:11:15.325Z,17.80
2022-08-24T04:13:45.343Z,17.70
2022-08-24T04:16:15.975Z,17.70
2022-08-24T04:18:44.596Z,17.70
2022-08-24T04:21:20.530Z,17.80
2022-08-24T04:23:49.141Z,17.80
2022-08-24T04:26:24.335Z,17.70
2022-08-24T04:29:10.168Z,17.70
2022-08-24T04:31:38.581Z,17.80
2022-08-24T04:34:06.709Z,17.80
2022-08-24T04:36:35.507Z,17.70
2022-08-24T04:39:06.053Z,17.70
2022-08-24T04:41:34.563Z,17.70
2022-08-24T04:44:04.075Z,17.70
2022-08-24T04:46:33.533Z,17.70
2022-08-24T04:49:01.703Z,17.60
2022-08-24T04:51:30.633Z,17.70
2022-08-24T04:54:05.030Z,17.70
2022-08-24T04:56:33.282Z,17.70
2022-08-24T04:59:02.662Z,17.70
2022-08-24T05:01:33.778Z,17.70
2022-08-24T05:04:02.751Z,17.70
2022-08-24T05:06:33.932Z,17.80
2022-08-24T05:09:02.801Z,17.80
2022-08-24T05:11:31.404Z,17.80
2022-08-24T05:14:00.325Z,17.80
2022-08-24T05:16:31.694Z,17.90
2022-08-24T05:19:02.947Z,17.90
2022-08-24T05:21:31.311Z,17.90
2022-08-24T05:23:59.473Z,17.90
2022-08-24T05:26:29.129Z,17.90
2022-08-24T05:28:58.966Z,17.90
2022-08-24T05:31:29.048Z,17.90
2022-08-24T05:33:57.880Z,18.00
2022-08-24T05:36:29.270Z,18.00
2022-08-24T05:38:59.002Z,18.10
2022-08-24T05:41:27.520Z,18.20
2022-08-24T05:43:55.965Z,18.20
2022-08-24T05:46:24.105Z,18.20
2022-08-24T05:48:53.183Z,18.30
2022-08-24T05:51:22.398Z,18.30
2022-08-24T05:53:51.939Z,18.30
2022-08-24T05:56:21.428Z,18.30
2022-08-24T05:58:49.963Z,18.30
2022-08-24T06:01:20.990Z,18.40
2022-08-24T06:03:50.160Z,18.40
2022-08-24T06:06:19.430Z,18.40
2022-08-24T06:08:49.416Z,18.50
2022-08-24T06:11:29.870Z,18.50
2022-08-24T06:14:01.516Z,18.60
2022-08-24T06:16:30.143Z,18.60
2022-08-24T06:18:58.433Z,18.70
2022-08-24T06:21:28.649Z,18.70
2022-08-24T06:23:57.295Z,18.70
2022-08-24T06:26:45.210Z,18.80
2022-08-24T06:29:19.342Z,18.90
2022-08-24T06:31:54.703Z,18.90
2022-08-24T06:34:26.253Z,19.00
2022-08-24T06:36:54.477Z,19.00
2022-08-24T06:39:22.587Z,19.00
2022-08-24T06:41:52.154Z,19.00
2022-08-24T06:44:20.174Z,19.10
2022-08-24T06:46:48.266Z,19.10
2022-08-24T06:49:16.497Z,19.10
2022-08-24T06:51:48.655Z,19.10
2022-08-24T06:54:19.225Z,19.20
2022-08-24T06:56:47.414Z,19.20
2022-08-24T06:59:16.876Z,19.20
2022-08-24T07:01:44.975Z,19.20
2022-08-24T07:04:13.041Z,19.30
2022-08-24T07:06:41.125Z,19.30
2022-08-24T07:09:09.207Z,19.30
2022-08-24T07:11:37.402Z,19.40
2022-08-24T07:14:06.739Z,19.40
2022-08-24T07:16:36.558Z,19.30
2022-08-24T07:19:06.423Z,19.40
2022-08-24T07:21:34.583Z,19.40
2022-08-24T07:24:04.237Z,19.50
2022-08-24T07:26:33.039Z,19.60
2022-08-24T07:29:06.276Z,19.60
2022-08-24T07:31:36.826Z,19.60
2022-08-24T07:34:05.615Z,19.70
2022-08-24T07:36:33.969Z,19.80
2022-08-24T07:39:02.709Z,19.70
2022-08-24T07:41:56.521Z,19.70
2022-08-24T07:44:20.076Z,19.80
2022-08-24T07:46:49.550Z,19.80
2022-08-24T07:49:36.064Z,19.80
2022-08-24T07:52:05.874Z,19.80
2022-08-24T07:54:34.504Z,19.90
2022-08-24T07:57:04.500Z,19.90
2022-08-24T07:59:32.514Z,20.00
2022-08-24T08:02:03.100Z,20.00
2022-08-24T08:04:31.983Z,20.00
2022-08-24T08:07:01.521Z,20.00
2022-08-24T08:09:30.306Z,20.00
2022-08-24T08:11:58.327Z,20.10
2022-08-24T08:14:26.401Z,20.10
2022-08-24T08:16:54.826Z,20.10
2022-08-24T08:19:24.229Z,20.20
2022-08-24T08:22:16.566Z,20.20
2022-08-24T08:24:44.887Z,20.20
2022-08-24T08:27:15.088Z,20.20
2022-08-24T08:29:43.393Z,20.30
2022-08-24T08:32:14.734Z,20.30
2022-08-24T08:34:44.576Z,20.40
2022-08-24T08:37:14.279Z,20.40
2022-08-24T08:39:42.482Z,20.40
2022-08-24T08:42:28.931Z,20.50
2022-08-24T08:45:09.937Z,20.60
2022-08-24T08:48:26.050Z,20.80
2022-08-24T08:51:20.133Z,20.80
2022-08-24T08:54:22.534Z,21.00
2022-08-24T08:57:12.107Z,21.00
2022-08-24T08:59:57.321Z,21.00
2022-08-24T09:02:45.218Z,21.10
2022-08-24T09:05:44.043Z,21.10
2022-08-24T09:08:21.657Z,21.10
2022-08-24T09:11:01.901Z,21.20
2022-08-24T09:13:59.679Z,21.20
2022-08-24T09:16:39.999Z,21.20
2022-08-24T09:19:31.929Z,21.20
2022-08-24T09:22:10.478Z,21.20
2022-08-24T09:25:08.448Z,21.30
2022-08-24T09:27:50.219Z,21.40
2022-08-24T09:30:23.798Z,21.50
2022-08-24T09:33:09.490Z,21.60
2022-08-24T09:36:10.973Z,21.70
2022-08-24T09:39:05.726Z,21.80
2022-08-24T09:42:07.053Z,21.80
2022-08-24T09:44:56.939Z,21.90
2022-08-24T09:47:46.241Z,22.00
2022-08-24T09:50:49.691Z,22.10
2022-08-24T09:53:46.628Z,22.10
2022-08-24T09:56:26.647Z,22.20
2022-08-24T09:59:07.141Z,22.20
2022-08-24T10:01:44.530Z,22.20
2022-08-24T10:04:27.139Z,22.20
2022-08-24T10:07:09.159Z,22.10
2022-08-24T10:10:02.963Z,22.10
2022-08-24T10:12:52.905Z,22.10
2022-08-24T10:15:29.325Z,22.20
2022-08-24T10:18:20.425Z,22.20
2022-08-24T10:21:21.533Z,22.30
2022-08-24T10:24:13.275Z,22.40
2022-08-24T10:26:58.793Z,22.40
2022-08-24T10:29:43.746Z,22.50
2022-08-24T10:32:26.204Z,22.50
2022-08-24T10:35:05.911Z,22.60
2022-08-24T10:38:25.133Z,22.70
2022-08-24T10:41:10.684Z,22.90
2022-08-24T10:44:00.674Z,23.00
2022-08-24T10:46:45.867Z,23.10
2022-08-24T10:49:52.680Z,23.20
2022-08-24T10:52:50.007Z,23.20
2022-08-24T10:55:24.841Z,23.30
2022-08-24T10:58:15.200Z,23.30
2022-08-24T11:00:43.680Z,23.40
2022-08-24T11:03:14.766Z,23.50
2022-08-24T11:05:47.924Z,23.60
2022-08-24T11:08:24.065Z,23.70
2022-08-24T11:11:08.323Z,23.80
2022-08-24T11:13:37.634Z,24.00
2022-08-24T11:16:07.389Z,24.00
2022-08-24T11:18:50.365Z,24.10
2022-08-24T11:21:34.898Z,24.30
2022-08-24T11:24:08.759Z,24.40
2022-08-24T11:26:53.645Z,24.50
2022-08-24T11:29:23.211Z,24.60
2022-08-24T11:31:53.510Z,24.70
2022-08-24T11:34:33.362Z,24.80
2022-08-24T11:37:01.435Z,24.90
2022-08-24T11:39:35.640Z,24.90
2022-08-24T11:42:12.954Z,24.80
2022-08-24T11:44:46.456Z,24.70
2022-08-24T11:47:39.326Z,24.70
2022-08-24T11:50:19.345Z,24.90
2022-08-24T11:53:00.832Z,25.10
2022-08-24T11:55:46.679Z,25.30
2022-08-24T11:58:19.725Z,25.40
2022-08-24T12:00:54.985Z,25.60
2022-08-24T12:03:52.320Z,25.70
2022-08-24T12:06:32.296Z,25.80
2022-08-24T12:09:06.749Z,26.00
2022-08-24T12:11:44.410Z,26.00
2022-08-24T12:14:21.968Z,26.00
2022-08-24T12:16:56.654Z,26.10
2022-08-24T12:19:29.766Z,26.10
2022-08-24T12:22:01.725Z,26.10
2022-08-24T12:24:33.561Z,25.90
2022-08-24T12:27:10.620Z,25.80
2022-08-24T12:29:43.223Z,25.70
2022-08-24T12:32:16.115Z,25.70
2022-08-24T12:34:56.813Z,25.80
2022-08-24T12:37:31.983Z,25.90
2022-08-24T12:40:08.787Z,25.80
2022-08-24T12:42:51.779Z,26.00
2022-08-24T12:45:22.263Z,26.10
2022-08-24T12:47:55.937Z,26.20
2022-08-24T12:50:29.650Z,26.30
2022-08-24T12:53:33.217Z,26.40
2022-08-24T12:56:21.000Z,26.40
2022-08-24T12:59:02.861Z,26.50
2022-08-24T13:01:35.825Z,26.50
2022-08-24T13:04:08.083Z,26.50
2022-08-24T13:06:43.936Z,26.50
2022-08-24T13:09:18.129Z,26.60
2022-08-24T13:11:46.396Z,26.70
2022-08-24T13:14:21.875Z,26.80
2022-08-24T13:17:07.613Z,26.80
2022-08-24T13:19:39.749Z,26.80
2022-08-24T13:22:54.077Z,26.70
2022-08-24T13:25:42.381Z,26.80
2022-08-24T13:28:29.387Z,26.70
2022-08-24T13:31:11.173Z,26.70
2022-08-24T13:33:43.790Z,26.80
2022-08-24T13:36:48.202Z,26.80
2022-08-24T13:39:44.581Z,26.80
2022-08-24T13:42:28.734Z,26.70
2022-08-24T13:45:25.838Z,26.80
2022-08-24T13:48:04.199Z,26.80
2022-08-24T13:50:39.734Z,26.90
2022-08-24T13:53:36.416Z,26.90
2022-08-24T13:56:32.380Z,27.00
2022-08-24T13:59:09.754Z,27.00
2022-08-24T14:01:51.033Z,27.00
2022-08-24T14:04:48.942Z,27.10
2022-08-24T14:07:21.643Z,27.20
2022-08-24T14:10:08.084Z,27.20
2022-08-24T14:13:02.448Z,27.20
2022-08-24T14:16:10.474Z,27.20
2022-08-24T14:18:51.636Z,27.30
2022-08-24T14:21:25.600Z,27.20
2022-08-24T14:24:01.401Z,27.30
2022-08-24T14:27:06.167Z,27.30
2022-08-24T14:29:42.774Z,27.30
2022-08-24T14:32:45.238Z,27.30
2022-08-24T14:35:26.417Z,27.30
2022-08-24T14:38:06.539Z,27.30
2022-08-24T14:40:54.290Z,27.30
2022-08-24T14:43:31.546Z,27.30
2022-08-24T14:46:09.178Z,27.30
2022-08-24T14:48:47.411Z,27.30
2022-08-24T14:51:31.755Z,27.30
2022-08-24T14:54:10.050Z,27.40
2022-08-24T14:56:54.403Z,27.40
2022-08-24T14:59:33.959Z,27.50
2022-08-24T15:02:39.690Z,27.50
2022-08-24T15:05:17.603Z,27.50
2022-08-24T15:07:55.591Z,27.50
2022-08-24T15:10:28.905Z,27.30
2022-08-24T15:13:03.633Z,27.20
2022-08-24T15:15:39.435Z,27.10
2022-08-24T15:18:21.751Z,27.00
2022-08-24T15:21:09.721Z,27.00
2022-08-24T15:23:58.404Z,27.00
2022-08-24T15:26:42.543Z,27.00
2022-08-24T15:29:15.194Z,27.00
2022-08-24T15:31:44.041Z,27.00
2022-08-24T15:34:12.379Z,27.00
2022-08-24T15:36:40.427Z,27.00
2022-08-24T15:39:08.531Z,27.00
2022-08-24T15:41:42.985Z,27.00
2022-08-24T15:44:23.393Z,27.00
2022-08-24T15:46:56.247Z,27.00
2022-08-24T15:49:28.799Z,27.00
2022-08-24T15:52:00.329Z,27.00
2022-08-24T15:54:35.856Z,26.90
2022-08-24T15:57:11.704Z,26.90
2022-08-24T15:59:49.990Z,26.90
2022-08-24T16:02:28.618Z,26.90
2022-08-24T16:05:14.405Z,26.90
2022-08-24T16:08:10.495Z,26.90
2022-08-24T16:10:41.905Z,26.90
2022-08-24T16:13:28.213Z,26.90
2022-08-24T16:16:03.345Z,26.90
2022-08-24T16:18:47.403Z,26.90
2022-08-24T16:21:21.018Z,26.90
2022-08-24T16:23:56.439Z,26.80
2022-08-24T16:26:27.170Z,26.80
2022-08-24T16:28:57.595Z,26.80
2022-08-24T16:31:47.937Z,26.80
2022-08-24T16:34:23.411Z,26.80
2022-08-24T16:36:51.549Z,26.70
2022-08-24T16:39:19.639Z,26.70
2022-08-24T16:41:48.019Z,26.60
2022-08-24T16:44:17.480Z,26.50
2022-08-24T16:46:48.020Z,26.50
2022-08-24T16:49:16.510Z,26.40
2022-08-24T16:51:45.412Z,26.30
2022-08-24T16:54:13.735Z,26.20
2022-08-24T16:56:42.572Z,26.10
2022-08-24T16:59:11.911Z,25.90
2022-08-24T17:01:41.366Z,25.80
2022-08-24T17:04:09.484Z,25.70
2022-08-24T17:06:37.881Z,25.50
2022-08-24T17:09:06.060Z,25.40
2022-08-24T17:11:37.121Z,25.30
2022-08-24T17:14:05.571Z,25.20
2022-08-24T17:16:33.811Z,25.10
2022-08-24T17:19:06.075Z,24.90
2022-08-24T17:21:34.550Z,24.90
2022-08-24T17:24:02.562Z,24.80
2022-08-24T17:26:33.165Z,24.80
2022-08-24T17:29:06.028Z,24.80
2022-08-24T17:31:34.120Z,24.80
2022-08-24T17:34:03.532Z,24.70
2022-08-24T17:36:32.311Z,24.70
2022-08-24T17:39:01.332Z,24.70
2022-08-24T17:41:29.440Z,24.80
2022-08-24T17:43:58.454Z,24.70
2022-08-24T17:46:26.462Z,24.60
2022-08-24T17:48:54.499Z,24.50
2022-08-24T17:51:23.933Z,24.30
2022-08-24T17:53:52.085Z,24.20
2022-08-24T17:56:20.506Z,24.20
2022-08-24T17:59:06.142Z,24.10
2022-08-24T18:01:34.270Z,24.10
2022-08-24T18:04:02.848Z,24.00
2022-08-24T18:06:33.273Z,23.90
2022-08-24T18:09:05.077Z,23.80
2022-08-24T18:11:33.384Z,23.80
2022-08-24T18:14:02.395Z,23.70
2022-08-24T18:16:30.581Z,23.60
2022-08-24T18:18:58.678Z,23.60
2022-08-24T18:21:26.871Z,23.50
2022-08-24T18:23:56.287Z,23.50
2022-08-24T18:26:28.059Z,23.40
2022-08-24T18:28:58.238Z,23.40
2022-08-24T18:31:28.818Z,23.40
2022-08-24T18:33:56.924Z,23.30
2022-08-24T18:36:24.959Z,23.20
2022-08-24T18:38:53.202Z,23.20
2022-08-24T18:41:27.232Z,23.20
2022-08-24T18:43:55.449Z,23.10
2022-08-24T18:46:23.830Z,23.00
2022-08-24T18:48:51.875Z,22.90
2022-08-24T18:51:21.748Z,22.80
2022-08-24T18:53:50.219Z,22.80
2022-08-24T18:56:19.982Z,22.80
2022-08-24T18:58:49.480Z,22.80
2022-08-24T19:01:17.848Z,22.70
2022-08-24T19:03:46.056Z,22.70
2022-08-24T19:06:14.113Z,22.70
2022-08-24T19:08:42.180Z,22.60
2022-08-24T19:11:11.431Z,22.60
2022-08-24T19:13:39.952Z,22.50
2022-08-24T19:16:09.507Z,22.50
2022-08-24T19:18:37.881Z,22.40
2022-08-24T19:21:05.960Z,22.40
2022-08-24T19:23:36.112Z,22.40
2022-08-24T19:26:05.231Z,22.40
2022-08-24T19:28:33.625Z,22.40
2022-08-24T19:31:03.984Z,22.30
2022-08-24T19:33:38.024Z,22.30
2022-08-24T19:36:06.900Z,22.20
2022-08-24T19:38:35.407Z,22.20
2022-08-24T19:41:11.724Z,22.20
2022-08-24T19:44:00.993Z,22.20
2022-08-24T19:46:28.207Z,22.20
2022-08-24T19:48:57.684Z,22.20
2022-08-24T19:51:26.681Z,22.10
2022-08-24T19:53:54.798Z,22.10
2022-08-24T19:56:23.724Z,22.00
2022-08-24T19:58:54.569Z,22.00
2022-08-24T20:01:24.956Z,21.90
2022-08-24T20:03:53.748Z,21.90
2022-08-24T20:06:24.993Z,21.90
2022-08-24T20:08:53.728Z,21.90
2022-08-24T20:11:24.920Z,21.90
2022-08-24T20:13:54.045Z,21.90
2022-08-24T20:16:24.053Z,21.90
2022-08-24T20:18:52.235Z,21.80
2022-08-24T20:21:20.319Z,21.80
2022-08-24T20:23:49.735Z,21.70
2022-08-24T20:26:17.790Z,21.70
2022-08-24T20:28:49.099Z,21.70
2022-08-24T20:31:18.437Z,21.70
2022-08-24T20:33:46.759Z,21.60
2022-08-24T20:36:24.176Z,21.60
2022-08-24T20:38:56.593Z,21.50
2022-08-24T20:41:27.368Z,21.50
2022-08-24T20:43:55.619Z,21.50
2022-08-24T20:46:24.009Z,21.50
2022-08-24T20:48:55.905Z,21.50
2022-08-24T20:51:24.390Z,21.40
2022-08-24T20:53:53.915Z,21.40
2022-08-24T20:56:31.360Z,21.40
2022-08-24T20:59:01.651Z,21.30
2022-08-24T21:01:30.015Z,21.30
2022-08-24T21:04:02.851Z,21.30
2022-08-24T21:06:34.243Z,21.30
2022-08-24T21:09:05.413Z,21.30
2022-08-24T21:11:33.979Z,21.30
2022-08-24T21:14:06.069Z,21.30
2022-08-24T21:16:35.905Z,21.20
2022-08-24T21:19:04.034Z,21.30
2022-08-24T21:21:33.552Z,21.20
2022-08-24T21:24:04.716Z,21.10
2022-08-24T21:26:34.245Z,21.10
2022-08-24T21:29:04.835Z,21.10
2022-08-24T21:31:32.925Z,21.10
2022-08-24T21:34:18.291Z,21.00
2022-08-24T21:36:48.440Z,21.10
2022-08-24T21:39:18.058Z,21.10
2022-08-24T21:41:46.395Z,21.10
2022-08-24T21:44:14.572Z,21.00
2022-08-24T21:46:43.496Z,21.00
2022-08-24T21:49:12.326Z,21.00
2022-08-24T21:51:40.660Z,20.90
2022-08-24T21:54:09.515Z,20.90
2022-08-24T21:56:39.176Z,20.90
2022-08-24T21:59:07.491Z,20.90
2022-08-24T22:01:35.639Z,20.90
2022-08-24T22:04:04.071Z,20.80
2022-08-24T22:06:32.797Z,20.80
2022-08-24T22:09:01.616Z,20.80
2022-08-24T22:11:30.346Z,20.70
2022-08-24T22:14:00.152Z,20.70
2022-08-24T22:16:28.281Z,20.70
2022-08-24T22:18:56.366Z,20.70
2022-08-24T22:21:29.339Z,20.60
2022-08-24T22:23:57.964Z,20.70
2022-08-24T22:26:27.225Z,20.70
2022-08-24T22:28:56.730Z,20.60
2022-08-24T22:31:29.031Z,20.60
2022-08-24T22:34:00.056Z,20.60
2022-08-24T22:36:30.101Z,20.60
2022-08-24T22:38:59.791Z,20.60
2022-08-24T22:41:28.317Z,20.50
2022-08-24T22:44:15.473Z,20.50
2022-08-24T22:46:45.059Z,20.40
2022-08-24T22:49:14.044Z,20.40
2022-08-24T22:51:42.468Z,20.40
2022-08-24T22:54:11.331Z,20.40
2022-08-24T22:56:42.096Z,20.40
2022-08-24T22:59:14.521Z,20.40
2022-08-24T23:01:46.226Z,20.40
2022-08-24T23:04:17.107Z,20.40
2022-08-24T23:06:45.387Z,20.40
2022-08-24T23:09:13.470Z,20.30
2022-08-24T23:11:41.850Z,20.30
2022-08-24T23:14:11.623Z,20.30
2022-08-24T23:16:44.569Z,20.30
2022-08-24T23:19:31.964Z,20.30
2022-08-24T23:22:00.062Z,20.20
2022-08-24T23:24:28.675Z,20.30
2022-08-24T23:26:57.272Z,20.20
2022-08-24T23:29:25.644Z,20.10
2022-08-24T23:31:53.937Z,20.10
2022-08-24T23:34:23.914Z,20.10
2022-08-24T23:36:52.214Z,20.10
2022-08-24T23:39:21.287Z,20.10
2022-08-24T23:41:50.920Z,20.10
2022-08-24T23:44:21.144Z,20.10
2022-08-24T23:46:49.482Z,20.10
2022-08-24T23:49:20.542Z,20.00
2022-08-24T23:51:50.911Z,20.00
2022-08-24T23:54:21.371Z,20.00
2022-08-24T23:56:51.437Z,20.00
2022-08-24T23:59:21.328Z,20.00
